Time;durP1;ratioP1;P1;durP2;ratioP2;P2;SDS_P1;SDS_P2;PMS_P1;PMS_P2;Temp;Humidity;BMP_temperature;BMP_pressure;BME280_temperature;BME280_humidity;BME280_pressure;Samples;Min_cycle;Max_cycle;Signal;HPM_P1;HPM_P2
2021/12/16 00:02:34;;;;;;;76.30;33.35;;;;;;;7.09;100.00;101744.28;1676900;85;25973;-78
2021/12/16 00:05:18;;;;;;;85.20;34.83;;;;;;;7.09;100.00;101739.43;1673656;85;26585;-78
2021/12/16 00:07:32;;;;;;;85.05;36.58;;;;;;;7.09;100.00;101741.61;1674880;84;25810;-78
2021/12/16 00:09:59;;;;;;;87.62;35.10;;;;;;;7.11;100.00;101745.47;1675085;84;25957;-78
2021/12/16 00:29:39;;;;;;;80.25;34.00;;;;;;;7.19;100.00;101740.28;1675929;85;25809;-78
2021/12/16 00:31:57;;;;;;;79.95;33.83;;;;;;;7.21;100.00;101739.66;1674224;85;25833;-78
2021/12/16 00:34:26;;;;;;;79.47;33.30;;;;;;;7.23;100.00;101744.39;1673817;85;26181;-78
2021/12/16 00:36:53;;;;;;;82.02;34.23;;;;;;;7.22;100.00;101738.21;1675003;85;25849;-78
2021/12/16 00:39:27;;;;;;;73.30;32.25;;;;;;;7.24;100.00;101732.25;1676980;85;27451;-78
2021/12/16 00:42:01;;;;;;;75.40;33.28;;;;;;;7.26;100.00;101736.95;1675401;85;25873;-78
2021/12/16 00:47:33;;;;;;;83.10;34.92;;;;;;;7.27;100.00;101735.14;1677307;85;26287;-78
2021/12/16 00:50:06;;;;;;;75.62;33.00;;;;;;;7.28;100.00;101737.66;1675794;85;25789;-78
2021/12/16 00:55:32;;;;;;;80.77;34.03;;;;;;;7.30;100.00;101735.69;1675924;85;25833;-78
2021/12/16 00:57:49;;;;;;;75.15;34.55;;;;;;;7.30;100.00;101734.36;1672938;85;26536;-78
2021/12/16 01:00:16;;;;;;;72.55;33.18;;;;;;;7.32;100.00;101735.55;1675824;85;26563;-78
2021/12/16 01:03:01;;;;;;;73.78;33.60;;;;;;;7.31;100.00;101733.88;1675226;85;25822;-78
2021/12/16 01:49:48;;;;;;;72.45;31.50;;;;;;;7.35;100.00;101707.30;1675642;85;25829;-79
2021/12/16 01:52:21;;;;;;;74.15;31.52;;;;;;;7.33;100.00;101705.27;1674762;85;25712;-78
2021/12/16 01:57:25;;;;;;;73.62;31.97;;;;;;;7.32;100.00;101699.56;1677444;84;26660;-79
2021/12/16 01:59:59;;;;;;;72.35;31.20;;;;;;;7.32;100.00;101701.75;1674428;85;28397;-78
2021/12/16 02:05:18;;;;;;;69.85;30.65;;;;;;;7.34;100.00;101713.11;1674672;85;25885;-78
2021/12/16 02:10:25;;;;;;;64.72;29.07;;;;;;;7.35;100.00;101713.95;1673736;85;26057;-78
2021/12/16 02:29:51;;;;;;;75.05;31.30;;;;;;;7.35;100.00;101715.30;1674669;84;25924;-78
2021/12/16 02:32:07;;;;;;;62.33;28.90;;;;;;;7.35;100.00;101724.63;1672477;85;26538;-78
2021/12/16 02:34:42;;;;;;;64.55;31.02;;;;;;;7.38;100.00;101722.99;1675257;85;25872;-78
2021/12/16 02:36:58;;;;;;;65.20;29.52;;;;;;;7.37;100.00;101719.51;1673837;85;26583;-78
2021/12/16 02:39:31;;;;;;;67.42;29.77;;;;;;;7.37;100.00;101718.66;1673456;85;28773;-78
2021/12/16 02:42:11;;;;;;;62.70;31.27;;;;;;;7.38;100.00;101718.99;1673181;85;25458;-79
2021/12/16 02:48:27;;;;;;;68.78;33.95;;;;;;;7.37;100.00;101718.17;1674912;85;25659;-78
2021/12/16 02:49:55;;;;;;;66.50;31.30;;;;;;;7.41;100.00;101717.40;1677265;84;25761;-78
2021/12/16 02:52:25;;;;;;;64.75;30.50;;;;;;;7.41;100.00;101717.40;1675783;85;27487;-79
2021/12/16 02:54:51;;;;;;;66.07;32.00;;;;;;;7.42;100.00;101715.91;1677354;84;25295;-78
2021/12/16 02:57:19;;;;;;;67.42;32.25;;;;;;;7.42;100.00;101715.91;1675403;85;26470;-78
2021/12/16 02:59:47;;;;;;;64.65;31.12;;;;;;;7.42;100.00;101719.09;1675168;85;26246;-79
2021/12/16 03:02:17;;;;;;;62.60;29.60;;;;;;;7.44;100.00;101718.47;1676629;84;25993;-78
2021/12/16 03:04:49;;;;;;;64.90;31.50;;;;;;;7.46;100.00;101723.16;1674047;85;27448;-79
2021/12/16 03:07:17;;;;;;;68.25;32.50;;;;;;;7.45;100.00;101724.98;1673637;85;26300;-79
2021/12/16 03:10:32;;;;;;;70.00;32.93;;;;;;;7.45;100.00;101727.64;1678322;85;26548;-78
2021/12/16 03:15:20;;;;;;;63.52;31.02;;;;;;;7.45;100.00;101720.12;1674380;85;25942;-78
2021/12/16 03:18:30;;;;;;;70.28;32.88;;;;;;;7.46;100.00;101720.50;1673762;85;27180;-78
2021/12/16 03:20:20;;;;;;;68.27;31.57;;;;;;;7.46;100.00;101710.66;1657048;85;26259;-78
2021/12/16 03:25:28;;;;;;;71.20;31.55;;;;;;;7.48;100.00;101718.05;1609118;88;26595;-78
2021/12/16 03:30:49;;;;;;;63.78;32.23;;;;;;;7.48;100.00;101717.20;1605469;88;27546;-78
2021/12/16 03:33:23;;;;;;;68.25;32.85;;;;;;;7.48;100.00;101720.72;1631753;85;25962;-78
2021/12/16 03:35:52;;;;;;;67.37;32.27;;;;;;;7.49;100.00;101726.38;1624196;87;26423;-78
2021/12/16 03:38:10;;;;;;;68.05;33.02;;;;;;;7.47;100.00;101724.34;1626898;87;26317;-79
2021/12/16 03:40:40;;;;;;;63.58;33.00;;;;;;;7.48;100.00;101724.72;1633992;87;26621;-78
2021/12/16 03:43:13;;;;;;;63.87;32.73;;;;;;;7.50;100.00;101724.08;1625882;88;27492;-79
2021/12/16 03:48:46;;;;;;;60.90;30.70;;;;;;;7.50;100.00;101713.91;1673593;85;25752;-78
2021/12/16 03:51:48;;;;;;;57.73;31.40;;;;;;;7.50;100.00;101710.75;1668223;85;25829;-78
2021/12/16 03:54:23;;;;;;;60.38;30.62;;;;;;;7.49;100.00;101716.20;1628239;86;25939;-78
2021/12/16 03:56:53;;;;;;;65.28;32.65;;;;;;;7.46;100.00;101713.83;1611161;86;27500;-78
2021/12/16 03:59:25;;;;;;;64.97;32.28;;;;;;;7.46;100.00;101705.84;1631888;86;25896;-78
2021/12/16 04:02:05;;;;;;;62.93;33.45;;;;;;;7.45;100.00;101706.80;1627902;86;25765;-78
2021/12/16 04:04:35;;;;;;;56.53;29.02;;;;;;;7.45;100.00;101704.14;1629006;87;26439;-79
2021/12/16 04:07:04;;;;;;;65.97;32.03;;;;;;;7.45;100.00;101704.98;1632128;86;26053;-79
2021/12/16 04:09:33;;;;;;;58.17;31.00;;;;;;;7.44;100.00;101695.29;1633856;86;27308;-79
2021/12/16 04:12:12;;;;;;;62.88;34.18;;;;;;;7.43;100.00;101697.63;1630574;86;26712;-79
2021/12/16 04:14:40;;;;;;;64.65;32.05;;;;;;;7.44;100.00;101698.47;1626000;87;26013;-79
2021/12/16 04:17:09;;;;;;;64.17;33.23;;;;;;;7.43;100.00;101694.95;1658623;85;25474;-78
2021/12/16 04:19:37;;;;;;;;;;;;;;;7.44;100.00;101695.29;1681607;83;25835;-78
2021/12/16 04:22:09;;;;;;;62.27;30.17;;;;;;;7.44;100.00;101698.47;1678983;84;27463;-78
2021/12/16 04:24:39;;;;;;;61.88;30.92;;;;;;;7.42;100.00;101688.44;1674345;83;25871;-78
2021/12/16 04:27:08;;;;;;;61.33;31.27;;;;;;;7.41;100.00;101690.26;1650091;85;25807;-78
2021/12/16 04:29:36;;;;;;;59.38;30.37;;;;;;;7.38;100.00;101695.85;1630139;86;26001;-78
2021/12/16 04:32:04;;;;;;;59.75;30.95;;;;;;;7.35;100.00;101686.82;1670611;83;25920;-78
2021/12/16 04:34:33;;;;;;;53.17;28.70;;;;;;;7.32;100.00;101682.24;1679823;84;27474;-78
2021/12/16 04:37:01;;;;;;;56.08;30.40;;;;;;;7.29;100.00;101684.69;1656528;85;26026;-78
2021/12/16 04:39:31;;;;;;;54.08;30.00;;;;;;;7.26;100.00;101682.80;1659521;85;25836;-78
2021/12/16 04:42:00;;;;;;;51.23;30.43;;;;;;;7.21;100.00;101676.55;1616314;87;25804;-78
2021/12/16 04:44:28;;;;;;;57.55;32.38;;;;;;;7.18;100.00;101666.67;1633887;86;25939;-78
2021/12/16 04:46:56;;;;;;;61.37;31.37;;;;;;;7.15;100.00;101669.12;1632799;86;28323;-78
2021/12/16 04:49:24;;;;;;;59.23;32.10;;;;;;;7.13;100.00;101664.42;1670657;83;26178;-78
2021/12/16 04:51:56;;;;;;;59.10;31.42;;;;;;;7.12;100.00;101671.23;1671990;84;25868;-78
2021/12/16 04:54:25;;;;;;;56.13;30.90;;;;;;;7.13;100.00;101671.56;1627173;86;26330;-78
2021/12/16 04:56:53;;;;;;;59.23;29.72;;;;;;;7.15;100.00;101666.94;1680516;83;26568;-78
2021/12/16 04:59:22;;;;;;;54.80;32.05;;;;;;;7.15;100.00;101665.61;1682529;83;28280;-78
2021/12/16 05:01:55;;;;;;;55.43;31.68;;;;;;;7.15;100.00;101670.94;1686824;83;26512;-78
2021/12/16 05:04:24;;;;;;;52.53;30.50;;;;;;;7.15;100.00;101665.13;1674492;84;25840;-78
2021/12/16 05:06:52;;;;;;;52.83;30.43;;;;;;;7.16;100.00;101676.15;1672246;84;25621;-78
2021/12/16 05:09:56;;;;;;;55.28;30.20;;;;;;;7.16;100.00;101668.16;1675747;85;25831;-79
2021/12/16 05:11:47;;;;;;;55.38;30.32;;;;;;;7.17;100.00;101666.31;1674095;83;27554;-78
2021/12/16 05:14:18;;;;;;;52.08;28.47;;;;;;;7.16;100.00;101664.16;1669928;85;25840;-78
2021/12/16 05:16:42;;;;;;;52.17;30.17;;;;;;;7.17;100.00;101665.83;1675878;83;25933;-78
2021/12/16 05:19:08;;;;;;;50.50;30.27;;;;;;;7.18;100.00;101671.52;1631044;86;25953;-78
2021/12/16 05:21:48;;;;;;;46.68;28.02;;;;;;;7.19;100.00;101671.86;1635792;86;26518;-78
2021/12/16 05:26:45;;;;;;;53.75;32.30;;;;;;;7.16;100.00;101665.98;1635700;85;25990;-78
2021/12/16 05:29:12;;;;;;;50.67;29.37;;;;;;;7.14;100.00;101668.78;1626298;86;26152;-78
2021/12/16 05:31:40;;;;;;;52.43;29.87;;;;;;;7.15;100.00;101669.60;1626140;88;25851;-78
2021/12/16 05:34:08;;;;;;;46.63;26.77;;;;;;;7.15;100.00;101666.45;1632913;86;25913;-78
2021/12/16 05:36:36;;;;;;;51.20;30.08;;;;;;;7.14;100.00;101674.11;1627925;86;28092;-78
2021/12/16 05:39:04;;;;;;;52.73;30.80;;;;;;;7.14;100.00;101669.27;1678591;83;25850;-78
2021/12/16 05:41:33;;;;;;;54.65;30.65;;;;;;;7.14;100.00;101667.45;1675907;85;25839;-78
2021/12/16 05:44:00;;;;;;;53.83;31.40;;;;;;;7.14;100.00;101667.94;1673567;85;26533;-78
2021/12/16 05:46:27;;;;;;;52.80;30.80;;;;;;;7.14;100.00;101662.61;1678046;85;25558;-78
2021/12/16 05:48:59;;;;;;;52.17;30.35;;;;;;;7.15;100.00;101666.94;1667399;83;28119;-78
2021/12/16 05:51:33;;;;;;;53.30;32.33;;;;;;;7.16;100.00;101666.82;1668968;84;26511;-78
2021/12/16 05:54:02;;;;;;;52.48;31.35;;;;;;;7.17;100.00;101669.82;1666377;83;25825;-78
2021/12/16 05:56:40;;;;;;;52.95;30.97;;;;;;;7.19;100.00;101668.34;1666327;83;26567;-78
2021/12/16 05:59:11;;;;;;;54.03;31.55;;;;;;;7.21;100.00;101669.05;1660113;84;26718;-78
2021/12/16 06:01:40;;;;;;;44.90;27.07;;;;;;;7.22;100.00;101666.27;1666108;84;27475;-78
2021/12/16 06:04:09;;;;;;;61.63;33.78;;;;;;;7.27;100.00;101663.19;1661557;83;26733;-78
2021/12/16 06:06:36;;;;;;;69.22;38.92;;;;;;;7.27;100.00;101668.00;1675675;83;26188;-81
2021/12/16 06:09:06;;;;;;;54.03;32.40;;;;;;;7.28;100.00;101667.52;1679972;83;25796;-78
2021/12/16 06:11:33;;;;;;;57.03;34.18;;;;;;;7.30;100.00;101667.73;1666318;83;25792;-78
2021/12/16 06:14:17;;;;;;;55.75;33.35;;;;;;;7.30;100.00;101671.73;1674034;85;28738;-79
2021/12/16 06:22:31;;;;;;;47.27;29.02;;;;;;;7.28;100.00;101671.52;1609393;87;26835;-78
2021/12/16 06:27:35;;;;;;;46.70;29.57;;;;;;;7.26;100.00;101681.47;1625392;87;27500;-78
2021/12/16 06:30:07;;;;;;;48.17;32.33;;;;;;;7.25;100.00;101677.95;1675098;85;26553;-78
2021/12/16 06:32:33;;;;;;;45.95;29.48;;;;;;;7.25;100.00;101686.47;1619240;87;25890;-78
2021/12/16 06:35:00;;;;;;;67.15;39.45;;;;;;;7.25;100.00;101683.80;1676534;85;25709;-78
2021/12/16 06:37:27;;;;;;;52.90;33.35;;;;;;;7.25;100.00;101685.13;1608422;88;25996;-78
2021/12/16 06:39:53;;;;;;;53.70;33.02;;;;;;;7.26;100.00;101693.46;1616083;87;28404;-78
2021/12/16 06:42:26;;;;;;;55.58;31.17;;;;;;;7.26;100.00;101695.64;1625932;87;25971;-77
2021/12/16 06:45:03;;;;;;;53.60;32.95;;;;;;;7.25;100.00;101696.61;1625890;87;25814;-78
2021/12/16 06:47:36;;;;;;;55.78;33.05;;;;;;;7.25;100.00;101699.27;1627795;87;25923;-78
2021/12/16 06:49:55;;;;;;;50.45;30.12;;;;;;;7.25;100.00;101700.61;1673725;85;25692;-78
2021/12/16 06:52:31;;;;;;;49.50;29.42;;;;;;;7.26;100.00;101702.79;1609164;87;27638;-78
2021/12/16 07:00:13;;;;;;;51.25;31.60;;;;;;;7.25;100.00;101703.27;1677761;83;25834;-78
2021/12/16 07:02:54;;;;;;;54.88;30.48;;;;;;;7.25;100.00;101695.28;1648672;85;26578;-78
2021/12/16 07:05:15;;;;;;;56.63;34.07;;;;;;;7.25;100.00;101691.28;1630190;86;27700;-78
2021/12/16 07:07:42;;;;;;;49.27;30.00;;;;;;;7.27;100.00;101688.50;1625441;86;26422;-78
2021/12/16 07:10:10;;;;;;;57.13;34.30;;;;;;;7.27;100.00;101689.83;1676079;83;26292;-78
2021/12/16 07:12:39;;;;;;;53.78;31.17;;;;;;;7.25;100.00;101689.95;1671606;83;26304;-77
2021/12/16 07:15:13;;;;;;;48.33;30.68;;;;;;;7.26;100.00;101680.98;1673671;83;25838;-78
2021/12/16 07:17:41;;;;;;;54.98;34.15;;;;;;;7.28;100.00;101685.69;1684864;83;28458;-78
2021/12/16 07:20:12;;;;;;;54.27;33.00;;;;;;;7.29;100.00;101689.20;1678665;83;25754;-78
2021/12/16 07:22:39;;;;;;;53.60;29.75;;;;;;;7.29;100.00;101689.20;1677628;83;26213;-78
2021/12/16 07:25:07;;;;;;;52.83;29.87;;;;;;;7.28;100.00;101670.18;1670470;83;25497;-78
2021/12/16 07:27:35;;;;;;;49.45;29.90;;;;;;;7.27;100.00;101677.33;1677765;83;26417;-78
2021/12/16 07:30:07;;;;;;;47.08;28.62;;;;;;;7.27;100.00;101673.84;1688205;83;28326;-78
2021/12/16 07:32:35;;;;;;;49.85;28.70;;;;;;;7.27;100.00;101674.66;1675773;83;26222;-78
2021/12/16 07:35:05;;;;;;;51.35;29.60;;;;;;;7.30;100.00;101678.88;1680842;83;26016;-78
2021/12/16 07:37:31;;;;;;;49.13;28.57;;;;;;;7.30;100.00;101671.73;1678505;83;25922;-78
2021/12/16 07:39:59;;;;;;;49.60;29.35;;;;;;;7.28;100.00;101671.03;1675349;83;25946;-78
2021/12/16 07:42:30;;;;;;;57.43;32.13;;;;;;;7.27;100.00;101675.17;1680527;83;28358;-79
2021/12/16 07:44:53;;;;;;;65.95;38.28;;;;;;;7.26;100.00;101676.98;1672357;84;26368;-78
2021/12/16 07:47:20;;;;;;;72.55;43.40;;;;;;;7.26;100.00;101669.48;1622475;86;26550;-78
2021/12/16 07:49:47;;;;;;;71.15;44.48;;;;;;;7.26;100.00;101669.48;1626449;88;25991;-78
2021/12/16 07:52:19;;;;;;;63.23;37.10;;;;;;;7.25;100.00;101668.63;1627837;86;25905;-78
2021/12/16 07:54:45;;;;;;;56.30;34.48;;;;;;;7.26;100.00;101665.00;1631548;86;27534;-78
2021/12/16 07:57:12;;;;;;;48.28;28.92;;;;;;;7.27;100.00;101664.52;1626059;87;25846;-78
2021/12/16 07:59:39;;;;;;;53.02;32.30;;;;;;;7.27;100.00;101663.19;1625754;88;26482;-77
2021/12/16 08:02:11;;;;;;;50.45;26.27;;;;;;;7.26;100.00;101669.48;1625793;86;26310;-78
2021/12/16 08:04:41;;;;;;;52.62;28.95;;;;;;;7.28;100.00;101676.84;1627517;86;25825;-78
2021/12/16 08:07:06;;;;;;;54.13;29.27;;;;;;;7.29;100.00;101674.55;1626532;87;27548;-78
2021/12/16 08:09:35;;;;;;;48.80;28.75;;;;;;;7.30;100.00;101681.06;1674914;85;25936;-78
2021/12/16 08:12:04;;;;;;;53.50;29.12;;;;;;;7.29;100.00;101676.69;1669548;84;26378;-78
2021/12/16 08:14:31;;;;;;;44.33;25.72;;;;;;;7.31;100.00;101683.23;1679001;84;26321;-78
2021/12/16 08:16:57;;;;;;;47.13;26.52;;;;;;;7.33;100.00;101687.94;1674184;85;25552;-78
2021/12/16 08:19:25;;;;;;;46.13;27.82;;;;;;;7.32;100.00;101684.42;1633885;86;28345;-78
2021/12/16 08:21:52;;;;;;;48.80;27.62;;;;;;;7.33;100.00;101682.13;1674962;83;26643;-78
2021/12/16 08:24:18;;;;;;;44.88;25.30;;;;;;;7.34;100.00;101684.27;1674407;83;26474;-78
2021/12/16 08:26:49;;;;;;;47.73;26.00;;;;;;;7.35;100.00;101688.64;1670017;83;26007;-78
2021/12/16 08:29:16;;;;;;;48.25;27.13;;;;;;;7.35;100.00;101692.64;1627580;86;25297;-78
2021/12/16 08:31:44;;;;;;;45.52;25.43;;;;;;;7.35;100.00;101697.97;1674136;85;27480;-78
2021/12/16 08:34:12;;;;;;;47.48;25.75;;;;;;;7.36;100.00;101704.48;1674226;85;25943;-78
2021/12/16 08:36:39;;;;;;;44.30;24.87;;;;;;;7.37;100.00;101700.85;1677522;85;25784;-78
2021/12/16 08:39:09;;;;;;;44.75;24.18;;;;;;;7.38;100.00;101697.19;1626992;87;25881;-78
2021/12/16 08:41:40;;;;;;;47.73;25.55;;;;;;;7.39;100.00;101705.55;1676093;85;25735;-78
2021/12/16 08:44:06;;;;;;;41.90;23.52;;;;;;;7.39;100.00;101711.36;1626801;86;27578;-78
2021/12/16 08:46:38;;;;;;;48.85;25.37;;;;;;;7.39;100.00;101707.37;1674643;85;25933;-78
2021/12/16 08:49:06;;;;;;;39.92;22.10;;;;;;;7.39;100.00;101708.70;1681534;83;26586;-78
2021/12/16 08:51:37;;;;;;;46.75;25.23;;;;;;;7.40;100.00;101707.73;1676420;85;26628;-78
2021/12/16 08:54:04;;;;;;;39.80;22.65;;;;;;;7.40;100.00;101719.21;1625691;87;26484;-78
2021/12/16 08:56:31;;;;;;;45.28;24.98;;;;;;;7.42;100.00;101705.25;1675640;85;28880;-78
2021/12/16 08:59:00;;;;;;;49.35;25.60;;;;;;;7.45;100.00;101706.80;1610761;87;25767;-78
2021/12/16 09:01:30;;;;;;;46.25;24.65;;;;;;;7.48;100.00;101709.20;1612872;87;26500;-78
2021/12/16 09:03:58;;;;;;;35.40;20.85;;;;;;;7.50;100.00;101711.23;1629365;87;27060;-78
2021/12/16 09:06:25;;;;;;;46.53;24.70;;;;;;;7.51;100.00;101700.42;1657169;85;25837;-78
2021/12/16 09:08:53;;;;;;;43.05;22.98;;;;;;;7.49;100.00;101695.72;1619731;88;27479;-79
2021/12/16 09:11:23;;;;;;;41.42;22.52;;;;;;;7.51;100.00;101693.76;1677269;85;25840;-78
2021/12/16 09:13:54;;;;;;;44.93;23.98;;;;;;;7.51;100.00;101687.58;1676523;85;25795;-77
2021/12/16 09:16:24;;;;;;;45.45;22.27;;;;;;;7.54;100.00;101695.30;1679632;84;25853;-78
2021/12/16 09:18:50;;;;;;;44.25;23.30;;;;;;;7.57;100.00;101709.19;1624867;86;26558;-78
2021/12/16 09:21:22;;;;;;;38.67;21.68;;;;;;;7.59;100.00;101695.22;1680786;83;27942;-78
2021/12/16 09:23:50;;;;;;;39.23;22.42;;;;;;;7.58;100.00;101700.70;1673094;83;25733;-78
2021/12/16 09:26:18;;;;;;;41.23;21.10;;;;;;;7.59;100.00;101695.73;1612185;86;25760;-78
2021/12/16 09:28:46;;;;;;;38.13;21.90;;;;;;;7.60;100.00;101692.92;1637553;86;25786;-78
2021/12/16 09:31:16;;;;;;;39.30;22.10;;;;;;;7.61;100.00;101695.92;1681795;83;26506;-77
2021/12/16 09:33:48;;;;;;;44.60;25.20;;;;;;;7.63;100.00;101699.80;1670255;83;27431;-78
2021/12/16 09:36:18;;;;;;;34.83;20.50;;;;;;;7.64;100.00;101702.80;1670949;83;26533;-78
2021/12/16 09:38:47;;;;;;;38.53;21.10;;;;;;;7.65;100.00;101695.17;1677646;84;26658;-78
2021/12/16 09:41:13;;;;;;;34.08;19.65;;;;;;;7.62;100.00;101689.62;1655826;85;25855;-78
2021/12/16 09:43:45;;;;;;;34.75;19.02;;;;;;;7.63;100.00;101691.28;1625593;86;26335;-81
2021/12/16 09:46:15;;;;;;;32.75;17.85;;;;;;;7.65;100.00;101696.50;1669783;84;27651;-78
2021/12/16 09:48:42;;;;;;;34.15;17.90;;;;;;;7.65;100.00;101704.02;1674342;85;25968;-82
2021/12/16 09:51:16;;;;;;;29.23;16.80;;;;;;;7.64;100.00;101706.31;1672245;84;25833;-78
2021/12/16 09:53:42;;;;;;;31.52;17.12;;;;;;;7.65;100.00;101713.34;1674951;85;25847;-77
2021/12/16 09:56:09;;;;;;;32.93;18.20;;;;;;;7.66;100.00;101699.50;1667804;84;26001;-79
2021/12/16 09:58:43;;;;;;;32.15;17.48;;;;;;;7.66;100.00;101703.50;1670343;84;27533;-78
2021/12/16 10:01:14;;;;;;;30.00;17.12;;;;;;;7.68;100.00;101697.53;1672541;85;25742;-83
2021/12/16 10:03:45;;;;;;;32.78;16.67;;;;;;;7.69;100.00;101693.90;1675236;85;26057;-78
2021/12/16 10:06:12;;;;;;;31.30;16.57;;;;;;;7.70;100.00;101696.41;1677376;85;25788;-80
2021/12/16 10:08:40;;;;;;;26.75;15.00;;;;;;;7.72;100.00;101694.93;1675039;85;25788;-78
2021/12/16 10:11:08;;;;;;;25.65;16.27;;;;;;;7.73;100.00;101687.30;1674100;85;27569;-79
2021/12/16 10:19:00;;;;;;;28.67;16.97;;;;;;;7.73;100.00;101684.63;1606765;87;26568;-80
2021/12/16 10:21:28;;;;;;;32.90;17.87;;;;;;;7.73;100.00;101674.81;1629428;87;25798;-80
2021/12/16 10:23:54;;;;;;;28.00;15.93;;;;;;;7.73;100.00;101676.14;1625732;87;27560;-78
2021/12/16 10:26:26;;;;;;;25.00;16.87;;;;;;;7.75;100.00;101682.66;1627304;87;25945;-78
2021/12/16 10:29:02;;;;;;;35.75;19.92;;;;;;;7.74;100.00;101681.81;1625387;87;25849;-78
2021/12/16 10:31:34;;;;;;;27.42;17.65;;;;;;;7.75;100.00;101679.51;1629128;87;25905;-78
2021/12/16 10:34:08;;;;;;;27.27;16.70;;;;;;;7.78;100.00;101672.53;1625290;87;25855;-78
2021/12/16 10:36:42;;;;;;;26.85;16.30;;;;;;;7.78;100.00;101672.53;1677758;84;27536;-78
2021/12/16 10:39:16;;;;;;;26.45;17.92;;;;;;;7.79;100.00;101674.72;1673990;85;26061;-78
2021/12/16 10:41:48;;;;;;;24.27;15.48;;;;;;;7.78;100.00;101683.20;1623663;88;25874;-78
2021/12/16 10:44:21;;;;;;;32.93;18.15;;;;;;;7.78;100.00;101677.87;1657883;82;26037;-79
2021/12/16 10:47:00;;;;;;;27.52;17.62;;;;;;;7.78;100.00;101679.72;1640106;87;25855;-81
2021/12/16 10:49:27;;;;;;;26.75;16.30;;;;;;;7.79;100.00;101682.23;1636320;86;27565;-81
2021/12/16 10:52:07;;;;;;;28.80;18.52;;;;;;;7.79;100.00;101688.05;1639748;87;26592;-79
2021/12/16 10:54:41;;;;;;;26.37;16.17;;;;;;;7.80;100.00;101683.09;1636613;85;26383;-80
2021/12/16 10:57:14;;;;;;;23.95;16.25;;;;;;;7.83;100.00;101664.63;1661146;83;26349;-79
2021/12/16 10:59:51;;;;;;;29.45;18.45;;;;;;;7.82;100.00;101675.78;1666522;84;25824;-78
2021/12/16 11:02:32;;;;;;;26.40;14.68;;;;;;;7.82;100.00;101686.45;1668330;85;27450;-81
2021/12/16 11:05:07;;;;;;;25.95;17.12;;;;;;;7.82;100.00;101682.45;1669629;85;25374;-81
2021/12/16 11:07:44;;;;;;;29.20;17.87;;;;;;;7.83;100.00;101683.30;1668866;85;25860;-79
2021/12/16 11:10:18;;;;;;;31.55;21.37;;;;;;;7.84;100.00;101676.96;1670986;85;25832;-80
2021/12/16 11:13:04;;;;;;;25.82;18.25;;;;;;;7.86;100.00;101667.84;1669881;85;26565;-79
2021/12/16 11:15:47;;;;;;;27.40;17.15;;;;;;;7.88;100.00;101661.86;1669141;85;27465;-80
2021/12/16 11:18:24;;;;;;;27.45;16.95;;;;;;;7.94;100.00;101637.76;1669149;85;25821;-80
2021/12/16 11:20:55;;;;;;;27.22;16.27;;;;;;;7.99;100.00;101644.84;1669136;85;26540;-79
2021/12/16 11:23:37;;;;;;;23.60;15.18;;;;;;;8.03;100.00;101644.91;1670509;85;26567;-79
2021/12/16 11:26:17;;;;;;;26.52;16.67;;;;;;;8.08;100.00;101649.33;1666770;85;25889;-79
2021/12/16 11:28:49;;;;;;;25.32;16.37;;;;;;;8.11;100.00;101641.01;1673391;84;28366;-81
2021/12/16 11:31:29;;;;;;;20.82;14.63;;;;;;;8.13;100.00;101644.38;1670540;85;25937;-80
2021/12/16 11:34:03;;;;;;;22.10;16.23;;;;;;;8.15;100.00;101649.92;1670132;85;25748;-79
2021/12/16 11:36:36;;;;;;;26.10;17.82;;;;;;;8.18;100.00;101650.13;1668571;85;26421;-81
2021/12/16 11:39:11;;;;;;;38.42;23.73;;;;;;;8.20;100.00;101640.99;1663640;85;25773;-78
2021/12/16 11:41:51;;;;;;;24.45;17.35;;;;;;;8.23;100.00;101636.67;1666061;85;27537;-78
2021/12/16 11:44:39;;;;;;;26.10;17.33;;;;;;;8.26;100.00;101647.11;1670032;85;26535;-78
2021/12/16 11:47:17;;;;;;;27.05;17.95;;;;;;;8.30;100.00;101657.84;1670729;85;25841;-80
2021/12/16 11:49:49;;;;;;;25.85;16.62;;;;;;;8.33;100.00;101664.23;1666656;85;26640;-77
2021/12/16 11:52:26;;;;;;;22.07;15.38;;;;;;;8.35;100.00;101661.41;1669249;85;25996;-78
2021/12/16 11:55:03;;;;;;;26.65;16.90;;;;;;;8.36;100.00;101657.24;1674360;85;27447;-81
2021/12/16 11:57:38;;;;;;;22.02;15.23;;;;;;;8.36;100.00;101663.10;1660202;85;25884;-82
2021/12/16 12:00:16;;;;;;;25.85;16.50;;;;;;;8.38;100.00;101658.45;1669903;85;25785;-80
2021/12/16 12:02:50;;;;;;;18.85;13.35;;;;;;;8.38;100.00;101638.44;1667346;85;25950;-79
2021/12/16 12:05:30;;;;;;;20.37;13.65;;;;;;;8.36;100.00;101635.07;1669358;85;25820;-80
2021/12/16 12:08:08;;;;;;;16.65;11.85;;;;;;;8.34;100.00;101646.39;1669476;85;28258;-79
2021/12/16 12:10:45;;;;;;;18.35;13.18;;;;;;;8.32;100.00;101651.00;1672051;85;25348;-78
2021/12/16 12:13:23;;;;;;;14.38;10.28;;;;;;;8.30;100.00;101647.64;1666937;85;25927;-78
2021/12/16 12:16:14;;;;;;;16.20;9.85;;;;;;;8.27;100.00;101664.81;1670783;85;26453;-78
2021/12/16 12:18:49;;;;;;;14.70;9.58;;;;;;;8.22;100.00;101663.52;1669689;85;25714;-78
2021/12/16 12:21:29;;;;;;;11.12;8.10;;;;;;;8.20;100.00;101665.02;1669494;85;28262;-78
2021/12/16 12:24:18;;;;;;;10.10;7.15;;;;;;;8.20;100.00;101665.50;1668589;85;26383;-79
2021/12/16 12:26:58;;;;;;;12.60;7.28;;;;;;;8.18;100.00;101666.14;1666056;85;25963;-78
2021/12/16 12:29:30;;;;;;;8.08;7.08;;;;;;;8.17;99.42;101669.81;1667507;85;26602;-78
2021/12/16 12:32:23;;;;;;;9.83;7.75;;;;;;;8.13;99.88;101658.56;1669469;85;25857;-77
2021/12/16 12:34:57;;;;;;;8.20;7.40;;;;;;;8.13;99.89;101653.23;1670846;85;27459;-78
2021/12/16 12:37:27;;;;;;;8.38;7.00;;;;;;;8.13;98.68;101661.72;1668126;85;25850;-78
2021/12/16 12:39:59;;;;;;;8.60;7.35;;;;;;;8.11;99.04;101673.87;1668817;85;25862;-78
2021/12/16 12:42:26;;;;;;;8.63;6.50;;;;;;;8.08;99.01;101660.84;1668031;85;26534;-77
2021/12/16 12:44:53;;;;;;;8.65;6.80;;;;;;;8.08;98.76;101646.66;1667813;85;25755;-78
2021/12/16 12:47:25;;;;;;;7.80;7.00;;;;;;;8.06;98.47;101639.29;1669318;84;28269;-78
2021/12/16 12:49:53;;;;;;;9.80;7.03;;;;;;;8.05;98.87;101634.92;1673314;85;44392;-78
2021/12/16 12:52:23;;;;;;;7.40;6.70;;;;;;;8.07;98.82;101632.95;1650279;85;25970;-78
2021/12/16 12:55:19;;;;;;;9.08;7.40;;;;;;;8.07;98.71;101619.13;1673525;85;26482;-78
2021/12/16 12:57:48;;;;;;;9.73;7.12;;;;;;;8.10;98.39;101616.66;1668828;85;26870;-77
2021/12/16 13:00:29;;;;;;;9.20;7.00;;;;;;;8.12;98.22;101632.03;1670803;85;27467;-77
2021/12/16 13:03:02;;;;;;;8.45;6.90;;;;;;;8.14;97.97;101646.92;1669479;85;26517;-77
2021/12/16 13:05:30;;;;;;;8.75;7.58;;;;;;;8.14;97.82;101646.92;1670033;85;25531;-78
2021/12/16 13:08:04;;;;;;;8.15;7.10;;;;;;;8.14;97.73;101644.73;1668861;85;26253;-80
2021/12/16 13:10:47;;;;;;;7.83;6.50;;;;;;;8.14;97.34;101653.59;1673318;85;26805;-80
2021/12/16 13:16:35;;;;;;;6.50;5.47;;;;;;;8.15;97.08;101651.73;1664044;84;25950;-80
2021/12/16 13:27:43;;;;;;;5.67;4.35;;;;;;;8.11;95.55;101661.88;1676610;83;27463;-76
2021/12/16 13:32:50;;;;;;;4.65;3.62;;;;;;;8.13;94.63;101649.22;1679241;83;26511;-79
2021/12/16 13:37:54;;;;;;;13.05;6.97;;;;;;;8.09;93.51;101655.84;1646997;85;26509;-79
2021/12/16 13:40:28;;;;;;;4.42;3.67;;;;;;;8.07;94.34;101647.63;1633953;86;28075;-79
2021/12/16 13:43:12;;;;;;;5.40;3.72;;;;;;;8.08;93.10;101642.17;1639531;85;25803;-78
2021/12/16 13:46:04;;;;;;;6.72;4.05;;;;;;;8.09;93.26;101637.16;1638528;86;25920;-78
2021/12/16 14:00:53;;;;;;;5.92;5.12;;;;;;;8.03;93.29;101625.74;1612361;86;25966;-79
2021/12/16 14:05:32;;;;;;;6.33;4.35;;;;;;;8.01;93.12;101634.88;1605857;87;26466;-79
2021/12/16 14:08:10;;;;;;;6.47;5.15;;;;;;;8.02;92.37;101639.23;1645521;86;27839;-79
2021/12/16 14:10:48;;;;;;;7.05;4.75;;;;;;;8.01;92.67;101627.72;1643064;86;32643;-78